createdAt,value
2022-08-09T00:00:59.750Z,2.00
2022-08-09T00:04:08.509Z,2.03
2022-08-09T00:06:22.878Z,2.30
2022-08-09T00:08:52.277Z,1.85
2022-08-09T00:11:27.834Z,1.77
2022-08-09T00:14:21.837Z,2.17
2022-08-09T00:16:56.839Z,2.03
2022-08-09T00:19:24.802Z,2.13
2022-08-09T00:21:57.048Z,2.15
2022-08-09T00:24:27.336Z,2.10
2022-08-09T00:26:56.127Z,1.90
2022-08-09T00:29:39.189Z,1.85
2022-08-09T00:32:26.892Z,2.00
2022-08-09T00:34:56.707Z,2.25
2022-08-09T00:37:27.129Z,1.90
2022-08-09T00:40:13.434Z,2.13
2022-08-09T00:44:11.080Z,1.75
2022-08-09T00:45:35.910Z,1.88
2022-08-09T00:48:06.249Z,2.00
2022-08-09T00:50:37.785Z,1.67
2022-08-09T00:53:10.135Z,1.75
2022-08-09T00:56:04.775Z,1.80
2022-08-09T00:58:31.798Z,2.20
2022-08-09T01:01:01.472Z,2.08
2022-08-09T01:03:46.657Z,2.00
2022-08-09T01:06:53.175Z,1.77
2022-08-09T01:09:36.657Z,1.80
2022-08-09T01:12:16.390Z,1.98
2022-08-09T01:14:52.612Z,1.80
2022-08-09T01:17:30.365Z,1.90
2022-08-09T01:20:04.834Z,2.03
2022-08-09T01:24:03.221Z,2.10
2022-08-09T01:26:46.271Z,2.10
2022-08-09T01:29:40.946Z,2.40
2022-08-09T01:32:30.118Z,2.10
2022-08-09T01:35:28.456Z,2.03
2022-08-09T01:38:09.388Z,2.30
2022-08-09T01:40:44.718Z,2.22
2022-08-09T01:43:24.073Z,2.08
2022-08-09T01:45:58.061Z,2.05
2022-08-09T01:48:29.667Z,2.10
2022-08-09T01:51:00.669Z,1.90
2022-08-09T01:53:41.633Z,1.85
2022-08-09T01:56:11.716Z,1.95
2022-08-09T01:58:49.140Z,1.88
2022-08-09T02:01:19.936Z,2.35
2022-08-09T02:03:51.079Z,2.60
2022-08-09T02:06:45.482Z,2.15
2022-08-09T02:09:24.601Z,2.42
2022-08-09T02:11:55.490Z,2.60
2022-08-09T02:14:28.519Z,2.15
2022-08-09T02:17:59.236Z,2.42
2022-08-09T02:19:47.424Z,2.08
2022-08-09T02:22:27.374Z,2.28
2022-08-09T02:25:08.990Z,2.80
2022-08-09T02:27:57.396Z,2.50
2022-08-09T02:30:32.200Z,2.55
2022-08-09T02:33:03.480Z,2.20
2022-08-09T02:36:01.356Z,2.30
2022-08-09T02:38:32.760Z,2.30
2022-08-09T02:41:11.177Z,2.25
2022-08-09T02:43:54.969Z,2.15
2022-08-09T02:46:30.564Z,2.30
2022-08-09T02:49:06.750Z,2.30
2022-08-09T02:51:42.042Z,2.17
2022-08-09T02:54:15.188Z,2.47
2022-08-09T02:56:51.118Z,2.63
2022-08-09T02:59:26.303Z,2.42
2022-08-09T03:02:12.062Z,2.80
2022-08-09T03:04:41.763Z,3.03
2022-08-09T03:07:14.234Z,2.72
2022-08-09T03:09:54.453Z,2.85
2022-08-09T03:12:28.284Z,3.00
2022-08-09T03:14:57.914Z,3.10
2022-08-09T03:17:30.323Z,2.72
2022-08-09T03:20:05.249Z,3.00
2022-08-09T03:22:44.480Z,3.22
2022-08-09T03:25:26.181Z,3.45
2022-08-09T03:28:05.295Z,3.45
2022-08-09T03:30:39.849Z,3.47
2022-08-09T03:33:18.573Z,3.47
2022-08-09T03:36:12.429Z,3.20
2022-08-09T03:38:42.035Z,3.17
2022-08-09T03:41:14.866Z,3.75
2022-08-09T03:44:03.401Z,3.53
2022-08-09T03:46:32.897Z,3.78
2022-08-09T03:49:08.796Z,3.58
2022-08-09T03:51:55.420Z,3.58
2022-08-09T03:54:30.927Z,3.40
2022-08-09T03:57:04.233Z,3.35
2022-08-09T03:59:53.441Z,3.60
2022-08-09T04:02:28.832Z,3.42
2022-08-09T04:05:06.659Z,3.85
2022-08-09T04:07:53.505Z,4.03
2022-08-09T04:10:28.744Z,3.50
2022-08-09T04:13:01.215Z,3.55
2022-08-09T04:15:52.580Z,3.50
2022-08-09T04:18:21.629Z,3.58
2022-08-09T04:20:52.223Z,3.97
2022-08-09T04:23:53.695Z,3.40
2022-08-09T04:26:23.357Z,4.03
2022-08-09T04:28:54.053Z,3.20
2022-08-09T04:31:26.503Z,3.35
2022-08-09T04:34:05.963Z,3.38
2022-08-09T04:36:50.291Z,3.20
2022-08-09T04:39:18.868Z,3.35
2022-08-09T04:41:47.196Z,3.80
2022-08-09T04:44:15.249Z,3.45
2022-08-09T04:46:59.260Z,3.40
2022-08-09T04:49:52.092Z,3.40
2022-08-09T04:52:26.631Z,3.97
2022-08-09T04:54:56.568Z,3.42
2022-08-09T04:57:54.418Z,3.58
2022-08-09T05:00:31.864Z,4.00
2022-08-09T05:03:30.025Z,3.60
2022-08-09T05:06:04.362Z,3.50
2022-08-09T05:08:36.800Z,3.60
2022-08-09T05:11:08.717Z,3.67
2022-08-09T05:13:38.470Z,4.07
2022-08-09T05:16:08.785Z,4.18
2022-08-09T05:18:58.414Z,3.67
2022-08-09T05:21:30.130Z,4.07
2022-08-09T05:24:02.415Z,3.58
2022-08-09T05:26:35.992Z,3.83
2022-08-09T05:29:17.551Z,4.47
2022-08-09T05:31:56.961Z,3.70
2022-08-09T05:34:31.213Z,3.80
2022-08-09T05:37:05.335Z,4.43
2022-08-09T05:39:42.714Z,3.92
2022-08-09T05:42:20.749Z,3.75
2022-08-09T05:45:02.801Z,3.88
2022-08-09T05:47:33.359Z,3.70
2022-08-09T05:50:30.398Z,3.83
2022-08-09T05:52:53.892Z,4.63
2022-08-09T05:55:24.566Z,3.53
2022-08-09T05:57:57.581Z,3.88
2022-08-09T06:00:28.935Z,4.30
2022-08-09T06:02:58.246Z,4.00
2022-08-09T06:05:30.790Z,3.78
2022-08-09T06:08:19.830Z,4.18
2022-08-09T06:10:56.014Z,3.65
2022-08-09T06:13:25.177Z,3.80
2022-08-09T06:15:53.833Z,3.58
2022-08-09T06:18:23.834Z,4.20
2022-08-09T06:20:54.809Z,4.30
2022-08-09T06:23:55.391Z,3.78
2022-08-09T06:26:20.135Z,4.20
2022-08-09T06:29:00.247Z,3.92
2022-08-09T06:31:40.250Z,3.63
2022-08-09T06:34:22.891Z,3.67
2022-08-09T06:36:57.510Z,4.50
2022-08-09T06:39:49.207Z,3.55
2022-08-09T06:42:24.767Z,4.10
2022-08-09T06:44:57.341Z,3.63
2022-08-09T06:47:25.665Z,3.08
2022-08-09T06:50:13.588Z,3.45
2022-08-09T06:52:46.939Z,3.50
2022-08-09T06:55:16.999Z,3.40
2022-08-09T06:58:02.775Z,3.15
2022-08-09T07:00:52.914Z,3.25
2022-08-09T07:03:28.620Z,2.92
2022-08-09T07:06:03.771Z,2.95
2022-08-09T07:08:34.477Z,3.10
2022-08-09T07:11:04.253Z,3.30
2022-08-09T07:13:45.190Z,3.15
2022-08-09T07:16:42.348Z,3.05
2022-08-09T07:19:15.000Z,2.72
2022-08-09T07:21:55.545Z,3.20
2022-08-09T07:24:31.456Z,2.50
2022-08-09T07:27:26.446Z,2.78
2022-08-09T07:30:01.379Z,2.50
2022-08-09T07:32:32.838Z,2.60
2022-08-09T07:35:10.163Z,2.65
2022-08-09T07:37:43.917Z,3.05
2022-08-09T07:40:17.422Z,2.65
2022-08-09T07:42:56.160Z,2.53
2022-08-09T07:45:37.108Z,2.70
2022-08-09T07:48:25.481Z,2.63
2022-08-09T07:51:09.559Z,2.70
2022-08-09T07:54:05.698Z,3.00
2022-08-09T07:56:49.966Z,2.55
2022-08-09T07:59:34.063Z,2.90
2022-08-09T08:02:09.621Z,2.45
2022-08-09T08:04:38.923Z,2.50
2022-08-09T08:07:21.593Z,2.90
2022-08-09T08:10:07.894Z,2.72
2022-08-09T08:12:43.578Z,2.30
2022-08-09T08:15:16.710Z,2.53
2022-08-09T08:17:53.248Z,2.13
2022-08-09T08:20:29.078Z,2.50
2022-08-09T08:23:16.120Z,2.40
2022-08-09T08:25:48.186Z,2.40
2022-08-09T08:28:31.991Z,2.70
2022-08-09T08:31:06.092Z,2.72
2022-08-09T08:33:52.344Z,2.53
2022-08-09T08:36:29.813Z,2.67
2022-08-09T08:38:59.685Z,2.80
2022-08-09T08:41:50.557Z,2.30
2022-08-09T08:44:26.776Z,2.50
2022-08-09T08:47:02.331Z,2.20
2022-08-09T08:49:47.305Z,2.72
2022-08-09T08:55:11.501Z,2.35
2022-08-09T08:57:43.685Z,2.05
2022-08-09T09:00:27.678Z,2.35
2022-08-09T09:03:08.756Z,2.60
2022-08-09T09:05:58.497Z,2.30
2022-08-09T09:08:40.819Z,2.15
2022-08-09T09:11:17.842Z,2.30
2022-08-09T09:13:56.576Z,2.47
2022-08-09T09:16:30.445Z,2.13
2022-08-09T09:22:11.747Z,2.20
2022-08-09T09:24:43.873Z,2.13
2022-08-09T09:28:02.878Z,2.70
2022-08-09T09:30:40.007Z,1.83
2022-08-09T09:33:17.040Z,2.17
2022-08-09T09:36:02.548Z,2.50
2022-08-09T09:38:48.274Z,2.05
2022-08-09T09:41:39.991Z,1.98
2022-08-09T09:44:27.859Z,2.17
2022-08-09T09:47:07.760Z,2.00
2022-08-09T09:50:07.758Z,2.13
2022-08-09T09:52:36.707Z,2.35
2022-08-09T09:55:24.330Z,2.08
2022-08-09T09:58:16.413Z,2.20
2022-08-09T10:00:54.398Z,1.90
2022-08-09T10:03:58.027Z,2.13
2022-08-09T10:06:31.950Z,2.10
2022-08-09T10:09:11.783Z,1.90
2022-08-09T10:12:14.943Z,1.88
2022-08-09T10:14:48.650Z,2.03
2022-08-09T10:17:40.407Z,1.60
2022-08-09T10:20:35.714Z,1.88
2022-08-09T10:23:22.548Z,2.00
2022-08-09T10:26:07.030Z,1.85
2022-08-09T10:28:45.405Z,1.90
2022-08-09T10:34:32.382Z,1.70
2022-08-09T10:36:57.715Z,1.83
2022-08-09T10:39:28.605Z,1.77
2022-08-09T10:41:57.355Z,2.10
2022-08-09T10:44:31.689Z,1.90
2022-08-09T10:48:12.291Z,2.20
2022-08-09T10:50:27.252Z,1.95
2022-08-09T10:53:28.267Z,2.30
2022-08-09T10:56:24.587Z,1.90
2022-08-09T10:58:56.177Z,1.90
2022-08-09T11:03:13.293Z,2.17
2022-08-09T11:04:55.643Z,2.20
2022-08-09T11:07:54.962Z,1.90
2022-08-09T11:10:59.831Z,1.83
2022-08-09T11:13:50.066Z,2.17
2022-08-09T11:16:38.437Z,2.20
2022-08-09T11:19:10.954Z,2.00
2022-08-09T11:22:10.471Z,2.30
2022-08-09T11:25:09.912Z,2.35
2022-08-09T11:28:03.943Z,1.98
2022-08-09T11:30:38.238Z,1.75
2022-08-09T11:33:25.286Z,2.28
2022-08-09T11:35:58.726Z,1.73
2022-08-09T11:38:32.993Z,1.95
2022-08-09T11:41:38.536Z,2.00
2022-08-09T11:44:10.374Z,1.88
2022-08-09T11:47:00.782Z,1.95
2022-08-09T11:50:53.721Z,2.20
2022-08-09T11:53:57.961Z,2.08
2022-08-09T11:56:42.189Z,1.73
2022-08-09T11:59:30.234Z,1.92
2022-08-09T12:02:16.954Z,2.05
2022-08-09T12:04:58.169Z,2.10
2022-08-09T12:07:41.564Z,1.77
2022-08-09T12:10:37.988Z,1.95
2022-08-09T12:13:03.681Z,1.88
2022-08-09T12:15:52.423Z,1.92
2022-08-09T12:18:29.790Z,1.90
2022-08-09T12:21:02.446Z,2.33
2022-08-09T12:24:00.424Z,2.00
2022-08-09T12:29:14.623Z,2.25
2022-08-09T12:30:37.069Z,2.08
2022-08-09T12:36:27.784Z,2.08
2022-08-09T12:39:37.751Z,1.95
2022-08-09T12:42:26.007Z,1.80
2022-08-09T13:20:37.473Z,1.90
2022-08-09T13:56:11.884Z,1.95
2022-08-09T13:59:00.507Z,2.00
2022-08-09T14:01:56.694Z,1.98
2022-08-09T14:04:59.966Z,2.15
2022-08-09T14:07:49.058Z,1.75
2022-08-09T14:10:49.474Z,1.88
2022-08-09T14:14:23.195Z,1.80
2022-08-09T14:16:53.137Z,1.88
2022-08-09T14:19:44.129Z,2.00
2022-08-09T14:22:33.285Z,1.95
2022-08-09T14:25:21.778Z,1.70
2022-08-09T14:28:10.276Z,2.15
2022-08-09T14:30:59.910Z,1.77
2022-08-09T14:33:52.307Z,1.85
2022-08-09T14:36:51.164Z,1.73
2022-08-09T14:39:48.096Z,1.70
2022-08-09T14:42:37.008Z,1.90
2022-08-09T14:46:58.878Z,1.95
2022-08-09T14:48:39.179Z,2.10
2022-08-09T14:51:27.410Z,1.63
2022-08-09T14:54:22.407Z,1.92
2022-08-09T14:57:16.575Z,1.85
2022-08-09T15:00:06.581Z,1.77
2022-08-09T15:02:55.842Z,1.63
2022-08-09T15:05:52.431Z,1.85
2022-08-09T15:08:45.098Z,1.90
2022-08-09T15:11:49.657Z,2.00
2022-08-09T15:14:39.364Z,1.70
2022-08-09T15:17:27.707Z,1.60
2022-08-09T15:22:01.825Z,1.80
2022-08-09T15:24:00.707Z,1.75
2022-08-09T15:26:34.972Z,1.63
2022-08-09T15:30:48.837Z,1.48
2022-08-09T15:32:31.693Z,1.80
2022-08-09T15:35:44.431Z,1.50
2022-08-09T15:38:30.796Z,1.50
2022-08-09T15:41:22.013Z,1.40
2022-08-09T15:44:10.724Z,1.83
2022-08-09T15:47:03.181Z,1.48
2022-08-09T15:50:03.616Z,1.60
2022-08-09T15:52:55.030Z,1.90
2022-08-09T15:56:20.933Z,1.48
2022-08-09T15:59:05.332Z,1.38
2022-08-09T16:01:54.627Z,1.58
2022-08-09T16:04:47.090Z,1.30
2022-08-09T16:07:45.730Z,1.67
2022-08-09T16:10:54.966Z,1.50
2022-08-09T16:14:03.391Z,1.45
2022-08-09T16:16:53.139Z,1.45
2022-08-09T16:19:49.490Z,1.38
2022-08-09T16:22:49.814Z,1.60
2022-08-09T16:25:41.050Z,1.42
2022-08-09T16:28:29.369Z,1.63
2022-08-09T16:31:19.030Z,1.42
2022-08-09T16:34:28.850Z,1.45
2022-08-09T16:37:17.626Z,1.48
2022-08-09T16:40:08.084Z,1.60
2022-08-09T16:42:56.614Z,1.45
2022-08-09T16:45:45.617Z,1.40
2022-08-09T16:48:53.937Z,1.40
2022-08-09T16:51:56.638Z,1.40
2022-08-09T16:54:45.193Z,1.70
2022-08-09T16:57:14.698Z,1.60
2022-08-09T16:59:44.017Z,1.48
2022-08-09T17:02:23.091Z,1.13
2022-08-09T17:04:54.134Z,1.45
2022-08-09T17:08:43.335Z,1.30
2022-08-09T17:10:14.793Z,1.45
2022-08-09T17:12:47.447Z,1.50
2022-08-09T17:15:31.302Z,1.42
2022-08-09T17:18:08.390Z,1.40
2022-08-09T17:20:49.115Z,1.20
2022-08-09T17:23:21.458Z,1.40
2022-08-09T17:26:07.812Z,1.50
2022-08-09T17:28:35.994Z,1.20
2022-08-09T17:31:04.829Z,1.40
2022-08-09T17:33:37.999Z,1.40
2022-08-09T17:36:09.175Z,1.63
2022-08-09T17:38:52.740Z,1.30
2022-08-09T17:41:39.048Z,1.30
2022-08-09T17:44:38.076Z,1.40
2022-08-09T17:46:57.649Z,1.48
2022-08-09T17:49:26.384Z,1.40
2022-08-09T17:51:59.906Z,1.40
2022-08-09T17:54:29.782Z,1.40
2022-08-09T17:56:58.137Z,1.25
2022-08-09T17:59:37.909Z,1.30
2022-08-09T18:02:14.745Z,1.48
2022-08-09T18:04:53.868Z,1.30
2022-08-09T18:07:23.886Z,1.30
2022-08-09T18:10:04.285Z,1.30
2022-08-09T18:12:40.583Z,1.05
2022-08-09T18:15:22.019Z,1.48
2022-08-09T18:18:10.162Z,1.60
2022-08-09T18:21:11.621Z,1.50
2022-08-09T18:24:12.308Z,1.30
2022-08-09T18:26:31.768Z,1.55
2022-08-09T18:30:40.808Z,1.20
2022-08-09T18:31:55.359Z,1.38
2022-08-09T18:34:27.367Z,1.48
2022-08-09T18:36:56.867Z,1.30
2022-08-09T18:39:32.522Z,1.70
2022-08-09T18:42:05.419Z,1.58
2022-08-09T18:44:39.855Z,1.30
2022-08-09T18:47:15.852Z,1.40
2022-08-09T18:49:47.271Z,1.25
2022-08-09T18:52:24.593Z,1.58
2022-08-09T18:54:54.724Z,1.30
2022-08-09T18:57:23.894Z,1.52
2022-08-09T19:00:10.296Z,1.30
2022-08-09T19:02:39.705Z,1.35
2022-08-09T19:05:28.939Z,1.30
2022-08-09T19:08:10.249Z,1.20
2022-08-09T19:10:43.534Z,1.27
2022-08-09T19:13:22.311Z,1.40
2022-08-09T19:16:02.674Z,1.35
2022-08-09T19:18:35.812Z,1.75
2022-08-09T19:21:08.914Z,1.40
2022-08-09T19:24:33.049Z,1.48
2022-08-09T19:26:35.978Z,1.52
2022-08-09T19:29:15.044Z,1.52
2022-08-09T19:31:46.486Z,1.40
2022-08-09T19:34:21.674Z,1.55
2022-08-09T19:36:52.777Z,1.30
2022-08-09T19:39:43.262Z,1.30
2022-08-09T19:42:14.484Z,1.40
2022-08-09T19:44:50.820Z,1.50
2022-08-09T19:47:27.096Z,1.65
2022-08-09T19:50:06.557Z,1.63
2022-08-09T19:52:49.766Z,1.30
2022-08-09T19:55:30.835Z,1.58
2022-08-09T19:58:16.765Z,1.48
2022-08-09T20:00:46.775Z,1.48
2022-08-09T20:04:07.438Z,1.55
2022-08-09T20:06:10.422Z,1.45
2022-08-09T20:08:51.157Z,1.60
2022-08-09T20:11:19.455Z,1.75
2022-08-09T20:13:53.805Z,1.60
2022-08-09T20:16:36.655Z,1.50
2022-08-09T20:19:49.653Z,1.27
2022-08-09T20:21:59.943Z,1.75
2022-08-09T20:24:33.963Z,1.70
2022-08-09T20:27:07.835Z,1.52
2022-08-09T20:29:39.079Z,1.60
2022-08-09T20:32:33.171Z,1.52
2022-08-09T20:34:57.974Z,1.42
2022-08-09T20:38:18.791Z,1.60
2022-08-09T20:40:24.736Z,1.42
2022-08-09T20:43:00.029Z,1.40
2022-08-09T20:46:01.242Z,1.40
2022-08-09T20:48:31.780Z,1.48
2022-08-09T20:51:01.131Z,1.48
2022-08-09T20:53:36.414Z,1.73
2022-08-09T20:56:09.408Z,1.48
2022-08-09T20:58:49.174Z,1.50
2022-08-09T21:01:34.887Z,1.30
2022-08-09T21:05:55.220Z,1.60
2022-08-09T21:06:57.890Z,1.10
2022-08-09T21:09:41.667Z,1.33
2022-08-09T21:14:42.711Z,1.23
2022-08-09T21:18:24.062Z,1.17
2022-08-09T21:20:23.119Z,1.27
2022-08-09T21:22:54.251Z,1.25
2022-08-09T21:25:44.372Z,1.35
2022-08-09T21:28:34.286Z,1.50
2022-08-09T21:31:16.501Z,1.50
2022-08-09T21:33:51.558Z,1.40
2022-08-09T21:36:22.959Z,1.42
2022-08-09T21:38:57.813Z,1.38
2022-08-09T21:42:04.435Z,1.40
2022-08-09T21:44:34.006Z,1.48
2022-08-09T21:47:05.701Z,1.40
2022-08-09T21:49:40.218Z,1.55
2022-08-09T21:52:14.675Z,1.80
2022-08-09T21:54:49.492Z,1.60
2022-08-09T21:57:37.219Z,1.23
2022-08-09T22:00:12.764Z,1.50
2022-08-09T22:02:42.900Z,1.52
2022-08-09T22:05:22.981Z,1.35
2022-08-09T22:07:53.278Z,1.55
2022-08-09T22:10:24.180Z,1.63
2022-08-09T22:12:53.248Z,1.40
2022-08-09T22:15:23.462Z,1.60
2022-08-09T22:18:03.432Z,1.48
2022-08-09T22:20:33.315Z,1.90
2022-08-09T22:23:02.342Z,1.90
2022-08-09T22:26:07.872Z,1.95
2022-08-09T22:28:32.620Z,2.05
2022-08-09T22:31:02.036Z,1.80
2022-08-09T22:33:48.784Z,1.73
2022-08-09T22:36:20.689Z,1.40
2022-08-09T22:38:48.990Z,1.60
2022-08-09T22:41:17.376Z,1.90
2022-08-09T22:44:02.542Z,1.48
2022-08-09T22:48:18.327Z,1.50
2022-08-09T22:49:21.860Z,1.33
2022-08-09T22:51:56.872Z,1.70
2022-08-09T22:54:27.166Z,1.70
2022-08-09T22:56:57.272Z,1.65
2022-08-09T22:59:58.161Z,2.00
2022-08-09T23:02:20.010Z,1.70
2022-08-09T23:04:54.170Z,1.60
2022-08-09T23:08:22.460Z,1.80
2022-08-09T23:10:32.351Z,1.80
2022-08-09T23:13:00.906Z,2.08
2022-08-09T23:15:30.535Z,1.77
2022-08-09T23:17:58.845Z,1.83
2022-08-09T23:20:28.703Z,1.83
2022-08-09T23:22:58.382Z,1.95
2022-08-09T23:25:26.531Z,1.85
2022-08-09T23:28:14.077Z,2.10
2022-08-09T23:30:51.156Z,2.55
2022-08-09T23:33:20.606Z,2.05
2022-08-09T23:36:04.354Z,1.90
2022-08-09T23:38:48.661Z,2.22
2022-08-09T23:41:27.572Z,1.98
2022-08-09T23:43:58.660Z,2.15
2022-08-09T23:46:27.219Z,1.98
2022-08-09T23:48:55.548Z,1.92
2022-08-09T23:51:23.802Z,4.68
2022-08-09T23:53:55.409Z,1.75
2022-08-09T23:56:52.422Z,1.52
2022-08-09T23:59:20.816Z,1.67
